createdAt,value
2023-01-21T00:02:08.229Z,2.40
2023-01-21T00:04:38.224Z,2.30
2023-01-21T00:07:07.703Z,2.60
2023-01-21T00:09:38.775Z,2.80
2023-01-21T00:12:07.008Z,2.50
2023-01-21T00:14:35.141Z,2.40
2023-01-21T00:17:03.605Z,2.40
2023-01-21T00:19:32.237Z,2.60
2023-01-21T00:22:00.406Z,2.30
2023-01-21T00:24:28.661Z,2.60
2023-01-21T00:26:59.677Z,2.70
2023-01-21T00:29:31.067Z,2.00
2023-01-21T00:32:00.085Z,2.20
2023-01-21T00:34:28.417Z,2.50
2023-01-21T00:36:56.711Z,2.40
2023-01-21T00:39:31.267Z,2.40
2023-01-21T00:42:05.092Z,2.60
2023-01-21T00:44:33.482Z,2.60
2023-01-21T00:47:04.094Z,2.80
2023-01-21T00:49:32.985Z,2.20
2023-01-21T00:52:01.435Z,2.50
2023-01-21T00:54:32.254Z,2.50
2023-01-21T00:57:00.476Z,2.40
2023-01-21T00:59:30.086Z,2.50
2023-01-21T01:01:58.644Z,2.60
2023-01-21T01:04:27.084Z,2.50
2023-01-21T01:06:55.269Z,2.60
2023-01-21T01:09:29.058Z,2.50
2023-01-21T01:11:59.686Z,2.10
2023-01-21T01:14:28.133Z,2.50
2023-01-21T01:16:56.284Z,2.40
2023-01-21T01:19:25.158Z,2.60
2023-01-21T01:21:53.425Z,3.00
2023-01-21T01:24:21.675Z,2.60
2023-01-21T01:26:49.840Z,2.50
2023-01-21T01:29:18.687Z,2.30
2023-01-21T01:31:46.954Z,2.30
2023-01-21T01:34:20.242Z,2.50
2023-01-21T01:36:49.176Z,2.60
2023-01-21T01:39:17.589Z,2.60
2023-01-21T01:41:46.133Z,2.30
2023-01-21T01:44:51.887Z,2.50
2023-01-21T01:47:31.341Z,2.90
2023-01-21T01:50:01.565Z,2.70
2023-01-21T01:52:33.507Z,3.10
2023-01-21T01:55:04.322Z,2.80
2023-01-21T01:57:39.829Z,2.70
2023-01-21T02:00:11.455Z,2.80
2023-01-21T02:02:42.161Z,2.60
2023-01-21T02:05:11.393Z,2.90
2023-01-21T02:07:42.850Z,2.80
2023-01-21T02:10:14.458Z,2.40
2023-01-21T02:12:44.401Z,3.30
2023-01-21T02:15:17.720Z,2.80
2023-01-21T02:18:24.081Z,3.30
2023-01-21T02:21:11.155Z,3.20
2023-01-21T02:24:10.194Z,3.20
2023-01-21T02:26:41.234Z,2.90
2023-01-21T02:29:09.547Z,3.50
2023-01-21T02:31:47.040Z,3.00
2023-01-21T02:34:50.783Z,3.40
2023-01-21T02:38:12.598Z,3.30
2023-01-21T02:41:14.417Z,3.90
2023-01-21T02:44:04.593Z,2.90
2023-01-21T02:47:18.684Z,4.00
2023-01-21T02:49:53.395Z,2.20
2023-01-21T02:52:25.107Z,3.50
2023-01-21T02:54:59.428Z,3.10
2023-01-21T02:58:05.313Z,2.30
2023-01-21T03:00:54.807Z,2.80
2023-01-21T03:03:47.921Z,3.30
2023-01-21T03:06:32.367Z,3.20
2023-01-21T03:09:22.760Z,3.10
2023-01-21T03:12:00.254Z,3.50
2023-01-21T03:15:09.379Z,3.60
2023-01-21T03:17:48.311Z,3.90
2023-01-21T03:20:25.476Z,3.50
2023-01-21T03:23:00.368Z,3.70
2023-01-21T03:25:31.996Z,3.40
2023-01-21T03:28:03.810Z,3.80
2023-01-21T03:30:34.836Z,3.90
2023-01-21T03:33:04.623Z,3.60
2023-01-21T03:35:37.717Z,3.20
2023-01-21T03:38:08.791Z,3.40
2023-01-21T03:40:44.912Z,3.60
2023-01-21T03:43:13.322Z,3.60
2023-01-21T03:45:52.908Z,3.70
2023-01-21T03:48:42.479Z,3.20
2023-01-21T03:51:18.518Z,4.10
2023-01-21T03:53:52.263Z,3.50
2023-01-21T03:56:20.502Z,3.50
2023-01-21T03:58:48.818Z,3.50
2023-01-21T04:01:17.144Z,3.70
2023-01-21T04:03:45.549Z,3.80
2023-01-21T04:06:16.241Z,3.70
2023-01-21T04:08:47.832Z,3.30
2023-01-21T04:11:16.577Z,3.50
2023-01-21T04:13:44.948Z,3.70
2023-01-21T04:16:16.636Z,4.00
2023-01-21T04:18:45.027Z,4.10
2023-01-21T04:21:16.175Z,4.40
2023-01-21T04:23:44.657Z,4.40
2023-01-21T04:26:16.602Z,4.30
2023-01-21T04:28:48.037Z,3.60
2023-01-21T04:31:16.366Z,4.80
2023-01-21T04:33:44.754Z,4.10
2023-01-21T04:36:13.726Z,3.50
2023-01-21T04:38:42.294Z,6.10
2023-01-21T04:41:10.467Z,7.50
2023-01-21T04:43:38.746Z,6.10
2023-01-21T04:46:06.967Z,7.60
2023-01-21T04:48:35.429Z,5.50
2023-01-21T04:51:04.132Z,4.50
2023-01-21T04:53:32.590Z,4.30
2023-01-21T04:56:01.129Z,4.40
2023-01-21T04:58:29.499Z,4.70
2023-01-21T05:00:57.781Z,4.70
2023-01-21T05:03:29.030Z,4.40
2023-01-21T05:05:57.276Z,4.00
2023-01-21T05:08:25.482Z,5.50
2023-01-21T05:10:53.627Z,4.90
2023-01-21T05:13:21.906Z,5.30
2023-01-21T05:15:50.148Z,5.40
2023-01-21T05:18:18.571Z,4.60
2023-01-21T05:20:46.633Z,4.90
2023-01-21T05:23:18.143Z,4.80
2023-01-21T05:25:49.287Z,4.30
2023-01-21T05:28:17.652Z,4.10
2023-01-21T05:30:45.949Z,4.30
2023-01-21T05:33:14.225Z,4.50
2023-01-21T05:35:42.376Z,4.10
2023-01-21T05:38:13.220Z,3.30
2023-01-21T05:40:41.472Z,4.40
2023-01-21T05:43:09.703Z,4.20
2023-01-21T05:45:37.886Z,4.00
2023-01-21T05:48:06.417Z,3.90
2023-01-21T05:50:34.746Z,3.60
2023-01-21T05:53:03.154Z,5.60
2023-01-21T05:55:31.153Z,6.40
2023-01-21T05:57:59.254Z,5.80
2023-01-21T06:00:27.298Z,5.90
2023-01-21T06:02:55.701Z,6.20
2023-01-21T06:05:24.057Z,6.70
2023-01-21T06:07:52.365Z,6.10
2023-01-21T06:10:20.660Z,6.90
2023-01-21T06:12:52.167Z,12.40
2023-01-21T06:15:20.648Z,11.90
2023-01-21T06:17:48.811Z,10.00
2023-01-21T06:20:17.422Z,7.90
2023-01-21T06:22:45.727Z,8.00
2023-01-21T06:25:13.956Z,9.80
2023-01-21T06:27:42.227Z,9.90
2023-01-21T06:30:11.462Z,10.00
2023-01-21T06:32:39.835Z,9.00
2023-01-21T06:35:08.633Z,9.60
2023-01-21T06:37:36.784Z,8.90
2023-01-21T06:40:08.870Z,7.40
2023-01-21T06:42:40.301Z,8.30
2023-01-21T06:45:11.365Z,7.60
2023-01-21T06:47:46.589Z,7.10
2023-01-21T06:50:17.256Z,6.60
2023-01-21T06:52:50.010Z,6.80
2023-01-21T06:55:18.398Z,7.90
2023-01-21T06:57:46.505Z,8.90
2023-01-21T07:00:20.451Z,7.20
2023-01-21T07:02:58.490Z,8.20
2023-01-21T07:05:29.720Z,9.20
2023-01-21T07:07:58.393Z,7.70
2023-01-21T07:10:26.927Z,8.00
2023-01-21T07:12:55.220Z,9.60
2023-01-21T07:15:23.276Z,12.20
2023-01-21T07:17:54.062Z,13.80
2023-01-21T07:20:22.832Z,12.20
2023-01-21T07:22:53.665Z,12.20
2023-01-21T07:25:22.064Z,11.50
2023-01-21T07:27:50.401Z,11.80
2023-01-21T07:30:20.326Z,10.40
2023-01-21T07:32:49.191Z,11.80
2023-01-21T07:35:17.685Z,10.40
2023-01-21T07:37:45.995Z,10.00
2023-01-21T07:40:16.658Z,11.10
2023-01-21T07:42:50.582Z,10.60
2023-01-21T07:45:20.436Z,23.80
2023-01-21T07:47:49.228Z,18.00
2023-01-21T07:50:17.792Z,9.60
2023-01-21T07:52:46.177Z,8.80
2023-01-21T07:55:14.766Z,8.00
2023-01-21T07:57:43.471Z,9.30
2023-01-21T08:00:12.638Z,10.20
2023-01-21T08:02:41.106Z,10.70
2023-01-21T08:05:10.318Z,8.90
2023-01-21T08:07:38.673Z,9.10
2023-01-21T08:10:09.880Z,14.40
2023-01-21T08:12:38.319Z,10.00
2023-01-21T08:15:10.648Z,11.80
2023-01-21T08:17:48.904Z,6.70
2023-01-21T08:20:17.200Z,6.00
2023-01-21T08:22:45.455Z,5.90
2023-01-21T08:25:13.838Z,6.00
2023-01-21T08:27:42.173Z,4.70
2023-01-21T08:30:10.950Z,4.00
2023-01-21T08:32:39.694Z,5.60
2023-01-21T08:35:08.553Z,4.30
2023-01-21T08:37:36.869Z,4.50
2023-01-21T08:40:06.408Z,4.80
2023-01-21T08:42:35.042Z,4.30
2023-01-21T08:45:03.831Z,4.00
2023-01-21T08:47:37.892Z,4.30
2023-01-21T08:50:07.997Z,4.00
2023-01-21T08:52:36.492Z,4.80
2023-01-21T08:55:08.060Z,4.70
2023-01-21T08:57:36.640Z,9.00
2023-01-21T09:00:05.762Z,4.90
2023-01-21T09:02:36.407Z,4.40
2023-01-21T09:05:05.368Z,5.50
2023-01-21T09:07:33.778Z,4.10
2023-01-21T09:10:03.975Z,5.00
2023-01-21T09:12:32.367Z,4.70
2023-01-21T09:15:00.533Z,4.80
2023-01-21T09:17:28.909Z,4.40
2023-01-21T09:19:57.043Z,4.20
2023-01-21T09:22:25.363Z,4.40
2023-01-21T09:24:53.985Z,4.60
2023-01-21T09:27:27.299Z,5.10
2023-01-21T09:29:58.742Z,7.80
2023-01-21T09:32:26.885Z,5.00
2023-01-21T09:34:55.337Z,5.20
2023-01-21T09:37:23.747Z,4.90
2023-01-21T09:39:51.988Z,4.10
2023-01-21T09:42:25.564Z,4.40
2023-01-21T09:44:56.815Z,5.50
2023-01-21T09:47:33.727Z,5.00
2023-01-21T09:50:14.889Z,5.20
2023-01-21T09:52:49.642Z,5.50
2023-01-21T09:55:34.046Z,5.70
2023-01-21T09:58:11.909Z,5.80
2023-01-21T10:00:52.933Z,4.40
2023-01-21T10:03:55.572Z,4.30
2023-01-21T10:06:48.549Z,4.70
2023-01-21T10:10:18.219Z,4.60
2023-01-21T10:13:34.181Z,3.90
2023-01-21T10:16:21.341Z,4.30
2023-01-21T10:18:55.989Z,5.90
2023-01-21T10:21:35.968Z,5.30
2023-01-21T10:24:16.156Z,5.60
2023-01-21T10:26:48.402Z,5.20
2023-01-21T10:29:19.702Z,4.80
2023-01-21T10:32:07.307Z,3.90
2023-01-21T10:34:52.499Z,4.00
2023-01-21T10:37:48.555Z,3.60
2023-01-21T10:40:45.688Z,3.70
2023-01-21T10:43:26.028Z,3.90
2023-01-21T10:46:44.861Z,4.70
2023-01-21T10:49:51.518Z,4.60
2023-01-21T10:52:34.587Z,4.30
2023-01-21T10:55:43.893Z,4.10
2023-01-21T10:58:39.025Z,4.20
2023-01-21T11:01:16.594Z,4.70
2023-01-21T11:03:51.126Z,4.20
2023-01-21T11:06:24.490Z,3.30
2023-01-21T11:08:58.716Z,4.00
2023-01-21T11:11:35.434Z,3.60
2023-01-21T11:14:03.897Z,3.80
2023-01-21T11:16:40.817Z,3.60
2023-01-21T11:19:16.362Z,4.10
2023-01-21T11:22:09.017Z,3.90
2023-01-21T11:24:46.323Z,3.70
2023-01-21T11:27:41.892Z,3.80
2023-01-21T11:30:50.715Z,3.60
2023-01-21T11:33:29.792Z,4.20
2023-01-21T11:36:13.120Z,3.90
2023-01-21T11:38:45.600Z,4.40
2023-01-21T11:41:13.860Z,4.40
2023-01-21T11:43:48.016Z,3.70
2023-01-21T11:46:38.827Z,3.80
2023-01-21T11:49:06.954Z,3.00
2023-01-21T11:51:36.986Z,2.90
2023-01-21T11:54:11.005Z,3.00
2023-01-21T11:56:43.358Z,4.50
2023-01-21T11:59:35.904Z,4.40
2023-01-21T12:02:26.347Z,5.50
2023-01-21T12:05:09.166Z,4.50
2023-01-21T12:07:42.557Z,3.30
2023-01-21T12:10:16.759Z,3.80
2023-01-21T12:13:32.163Z,4.10
2023-01-21T12:16:13.251Z,4.30
2023-01-21T12:19:22.110Z,5.20
2023-01-21T12:22:13.781Z,6.20
2023-01-21T12:25:06.482Z,6.50
2023-01-21T12:27:47.634Z,4.40
2023-01-21T12:30:38.115Z,4.70
2023-01-21T12:33:36.539Z,5.20
2023-01-21T12:36:11.166Z,5.20
2023-01-21T12:38:42.673Z,5.50
2023-01-21T12:41:19.028Z,4.10
2023-01-21T12:43:54.885Z,6.00
2023-01-21T12:46:46.562Z,6.80
2023-01-21T12:49:25.065Z,5.10
2023-01-21T12:52:00.071Z,4.30
2023-01-21T12:54:39.169Z,3.90
2023-01-21T12:57:20.665Z,2.50
2023-01-21T12:59:57.144Z,3.20
2023-01-21T13:02:49.487Z,4.20
2023-01-21T13:05:34.507Z,3.40
2023-01-21T13:08:46.022Z,3.80
2023-01-21T13:11:23.520Z,3.70
2023-01-21T13:14:15.618Z,4.30
2023-01-21T13:16:49.842Z,2.90
2023-01-21T13:19:18.000Z,3.30
2023-01-21T13:22:26.596Z,4.00
2023-01-21T13:25:13.239Z,4.30
2023-01-21T13:28:07.011Z,4.50
2023-01-21T13:31:02.123Z,4.10
2023-01-21T13:34:18.061Z,3.80
2023-01-21T13:37:11.759Z,3.70
2023-01-21T13:39:49.707Z,4.30
2023-01-21T13:42:30.307Z,4.80
2023-01-21T13:45:30.549Z,4.90
2023-01-21T13:48:49.982Z,4.90
2023-01-21T13:51:36.938Z,6.70
2023-01-21T13:54:42.378Z,7.40
2023-01-21T13:57:48.428Z,4.80
2023-01-21T14:00:24.569Z,4.10
2023-01-21T14:03:14.329Z,4.70
2023-01-21T14:05:51.560Z,3.90
2023-01-21T14:08:33.844Z,4.20
2023-01-21T14:11:23.964Z,5.30
2023-01-21T14:14:08.308Z,4.90
2023-01-21T14:24:51.948Z,3.70
2023-01-21T14:27:40.512Z,5.50
2023-01-21T14:30:37.453Z,8.40
2023-01-21T14:33:46.257Z,6.20
2023-01-21T14:36:29.699Z,4.70
2023-01-21T14:39:19.492Z,5.00
2023-01-21T14:42:11.828Z,4.70
2023-01-21T14:45:04.971Z,4.70
2023-01-21T14:47:38.646Z,5.30
2023-01-21T14:50:10.442Z,7.10
2023-01-21T14:52:46.699Z,5.00
2023-01-21T14:55:36.696Z,5.20
2023-01-21T14:58:23.089Z,5.60
2023-01-21T15:00:52.005Z,4.60
2023-01-21T15:03:30.488Z,4.60
2023-01-21T15:06:10.875Z,7.30
2023-01-21T15:08:46.251Z,5.30
2023-01-21T15:11:21.084Z,5.40
2023-01-21T15:14:11.235Z,5.80
2023-01-21T15:16:41.381Z,5.40
2023-01-21T15:19:14.658Z,5.50
2023-01-21T15:21:45.636Z,6.80
2023-01-21T15:24:41.793Z,7.30
2023-01-21T15:27:28.215Z,7.60
2023-01-21T15:29:56.965Z,9.00
2023-01-21T15:32:39.287Z,8.50
2023-01-21T15:35:29.701Z,6.90
2023-01-21T15:38:17.568Z,7.00
2023-01-21T15:40:53.715Z,6.50
2023-01-21T15:43:49.615Z,7.40
2023-01-21T15:46:42.428Z,7.50
2023-01-21T15:49:16.442Z,7.40
2023-01-21T15:52:12.475Z,7.00
2023-01-21T15:54:54.474Z,7.70
2023-01-21T15:58:07.215Z,8.20
2023-01-21T16:01:06.111Z,5.20
2023-01-21T16:03:44.593Z,5.50
2023-01-21T16:06:31.349Z,6.50
2023-01-21T16:09:12.252Z,6.20
2023-01-21T16:12:16.468Z,4.80
2023-01-21T16:15:03.392Z,5.40
2023-01-21T16:18:12.224Z,5.80
2023-01-21T16:20:50.234Z,5.90
2023-01-21T16:23:22.625Z,11.70
2023-01-21T16:25:53.358Z,10.60
2023-01-21T16:28:21.824Z,7.50
2023-01-21T16:31:01.227Z,6.40
2023-01-21T16:33:33.264Z,6.80
2023-01-21T16:36:07.425Z,8.80
2023-01-21T16:38:37.884Z,10.30
2023-01-21T16:41:15.463Z,10.90
2023-01-21T16:43:52.819Z,11.90
2023-01-21T16:46:39.060Z,12.20
2023-01-21T16:49:15.793Z,11.50
2023-01-21T16:52:00.157Z,11.60
2023-01-21T16:54:46.841Z,11.00
2023-01-21T16:57:19.488Z,11.60
2023-01-21T16:59:52.345Z,10.80
2023-01-21T17:02:25.802Z,9.30
2023-01-21T17:04:57.765Z,8.60
2023-01-21T17:07:32.899Z,8.90
2023-01-21T17:10:17.764Z,11.10
2023-01-21T17:12:59.618Z,10.60
2023-01-21T17:15:41.556Z,10.10
2023-01-21T17:18:26.898Z,10.50
2023-01-21T17:21:03.869Z,10.00
2023-01-21T17:23:58.597Z,8.90
2023-01-21T17:26:41.879Z,7.30
2023-01-21T17:29:31.589Z,8.20
2023-01-21T17:32:02.586Z,9.40
2023-01-21T17:34:36.615Z,10.40
2023-01-21T17:39:53.296Z,9.80
2023-01-21T17:42:24.266Z,9.60
2023-01-21T17:44:55.759Z,8.90
2023-01-21T17:47:27.998Z,7.60
2023-01-21T17:50:20.567Z,8.60
2023-01-21T17:53:09.514Z,8.80
2023-01-21T17:55:40.888Z,9.70
2023-01-21T17:58:52.827Z,11.30
2023-01-21T18:01:27.161Z,11.00
2023-01-21T18:03:58.661Z,10.90
2023-01-21T18:06:38.715Z,12.50
2023-01-21T18:09:13.502Z,14.00
2023-01-21T18:11:43.328Z,13.20
2023-01-21T18:14:18.949Z,9.50
2023-01-21T18:16:50.702Z,9.60
2023-01-21T18:19:33.249Z,11.00
2023-01-21T18:22:04.728Z,9.90
2023-01-21T18:24:34.839Z,10.80
2023-01-21T18:27:03.407Z,9.90
2023-01-21T18:29:32.190Z,8.90
2023-01-21T18:32:00.451Z,8.40
2023-01-21T18:34:35.100Z,8.60
2023-01-21T18:37:13.547Z,10.30
2023-01-21T18:39:42.074Z,8.70
2023-01-21T18:42:27.601Z,7.60
2023-01-21T18:44:58.285Z,8.20
2023-01-21T18:47:32.816Z,8.10
2023-01-21T18:50:03.407Z,8.60
2023-01-21T18:52:31.891Z,9.60
2023-01-21T18:55:00.596Z,9.50
2023-01-21T18:57:28.763Z,9.20
2023-01-21T19:00:04.238Z,9.10
2023-01-21T19:02:36.371Z,10.80
2023-01-21T19:05:07.192Z,10.00
2023-01-21T19:07:35.550Z,10.30
2023-01-21T19:10:04.118Z,11.10
2023-01-21T19:12:32.592Z,12.40
2023-01-21T19:15:04.914Z,12.90
2023-01-21T19:17:33.651Z,13.00
2023-01-21T19:20:02.180Z,13.40
2023-01-21T19:22:30.598Z,14.50
2023-01-21T19:24:58.899Z,14.60
2023-01-21T19:27:32.571Z,15.20
2023-01-21T19:30:01.279Z,12.70
2023-01-21T19:32:29.388Z,12.00
2023-01-21T19:34:57.894Z,11.90
2023-01-21T19:37:26.250Z,13.30
2023-01-21T19:39:54.404Z,11.10
2023-01-21T19:42:22.937Z,11.00
2023-01-21T19:44:51.535Z,10.50
2023-01-21T19:47:26.595Z,10.70
2023-01-21T19:49:55.193Z,11.30
2023-01-21T19:52:23.624Z,10.90
2023-01-21T19:54:54.765Z,11.70
2023-01-21T19:57:23.982Z,8.90
2023-01-21T19:59:53.564Z,8.50
2023-01-21T20:02:21.948Z,9.50
2023-01-21T20:04:50.432Z,9.20
2023-01-21T20:07:18.741Z,9.40
2023-01-21T20:09:47.137Z,8.50
2023-01-21T20:12:15.481Z,8.40
2023-01-21T20:14:43.757Z,9.70
2023-01-21T20:17:14.098Z,8.80
2023-01-21T20:19:42.354Z,7.90
2023-01-21T20:22:12.646Z,8.10
2023-01-21T20:24:43.616Z,8.10
2023-01-21T20:27:14.371Z,8.20
2023-01-21T20:29:55.575Z,8.00
2023-01-21T20:32:30.637Z,7.20
2023-01-21T20:34:59.086Z,8.40
2023-01-21T20:37:27.315Z,7.70
2023-01-21T20:39:55.555Z,6.90
2023-01-21T20:42:24.077Z,6.90
2023-01-21T20:44:54.907Z,7.50
2023-01-21T20:47:37.877Z,6.80
2023-01-21T20:50:20.440Z,7.20
2023-01-21T20:52:49.686Z,7.20
2023-01-21T20:55:20.961Z,7.70
2023-01-21T20:57:49.960Z,7.60
2023-01-21T21:00:22.948Z,7.90
2023-01-21T21:02:51.484Z,10.60
2023-01-21T21:05:20.391Z,13.70
2023-01-21T21:07:51.994Z,10.60
2023-01-21T21:10:36.230Z,9.30
2023-01-21T21:13:04.813Z,10.20
2023-01-21T21:15:36.475Z,11.60
2023-01-21T21:18:05.685Z,11.10
2023-01-21T21:20:37.056Z,12.50
2023-01-21T21:23:07.481Z,13.60
2023-01-21T21:25:40.501Z,13.40
2023-01-21T21:28:11.146Z,7.80
2023-01-21T21:30:39.524Z,7.80
2023-01-21T21:33:12.337Z,8.20
2023-01-21T21:35:41.190Z,8.40
2023-01-21T21:38:17.123Z,9.00
2023-01-21T21:40:47.395Z,8.80
2023-01-21T21:43:33.022Z,9.40
2023-01-21T21:46:25.110Z,11.20
2023-01-21T21:48:53.934Z,12.80
2023-01-21T21:51:22.665Z,11.20
2023-01-21T21:53:52.061Z,9.80
2023-01-21T21:56:23.006Z,9.50
2023-01-21T21:58:54.539Z,9.50
2023-01-21T22:01:30.402Z,8.90
2023-01-21T22:04:04.893Z,9.20
2023-01-21T22:06:36.320Z,9.80
2023-01-21T22:09:07.189Z,8.80
2023-01-21T22:11:35.444Z,9.60
2023-01-21T22:14:04.477Z,9.90
2023-01-21T22:16:36.452Z,8.90
2023-01-21T22:19:05.213Z,10.60
2023-01-21T22:21:36.350Z,9.80
2023-01-21T22:24:08.299Z,10.50
2023-01-21T22:26:40.217Z,9.00
2023-01-21T22:29:08.593Z,9.00
2023-01-21T22:31:46.766Z,9.60
2023-01-21T22:34:15.569Z,10.40
2023-01-21T22:36:47.159Z,9.40
2023-01-21T22:39:23.773Z,8.00
2023-01-21T22:42:00.338Z,8.40
2023-01-21T22:44:31.687Z,8.60
2023-01-21T22:46:59.998Z,8.20
2023-01-21T22:49:30.678Z,9.20
2023-01-21T22:52:02.134Z,8.80
2023-01-21T22:54:30.440Z,9.00
2023-01-21T22:57:01.385Z,9.00
2023-01-21T22:59:31.891Z,10.40
2023-01-21T23:02:02.471Z,9.70
2023-01-21T23:04:33.255Z,10.50
2023-01-21T23:07:03.948Z,9.40
2023-01-21T23:09:32.935Z,9.20
2023-01-21T23:12:01.477Z,11.00
2023-01-21T23:14:32.858Z,11.60
2023-01-21T23:17:01.340Z,10.70
2023-01-21T23:19:29.640Z,10.20
2023-01-21T23:22:00.845Z,10.00
2023-01-21T23:24:32.025Z,11.50
2023-01-21T23:27:00.575Z,9.60
2023-01-21T23:29:32.017Z,9.30
2023-01-21T23:32:00.787Z,8.90
2023-01-21T23:34:29.330Z,9.70
2023-01-21T23:36:57.652Z,11.40
2023-01-21T23:39:25.700Z,11.30
2023-01-21T23:41:55.058Z,10.10
2023-01-21T23:44:25.541Z,11.70
2023-01-21T23:46:54.144Z,12.00
2023-01-21T23:49:25.301Z,11.40
2023-01-21T23:51:53.303Z,10.60
